sensor_id;sensor_type;location;lat;lon;timestamp;pressure;altitude;pressure_sealevel;temperature;humidity
5522;BME280;2783;48.730;8.006;2023-07-31T00:01:42;100129.34;;;19.23;83.58
5522;BME280;2783;48.730;8.006;2023-07-31T00:04:08;100132.16;;;19.22;82.86
5522;BME280;2783;48.730;8.006;2023-07-31T00:06:33;100123.72;;;19.14;83.16
5522;BME280;2783;48.730;8.006;2023-07-31T00:08:58;100129.47;;;19.08;82.97
5522;BME280;2783;48.730;8.006;2023-07-31T00:11:24;100126.16;;;19.04;83.14
5522;BME280;2783;48.730;8.006;2023-07-31T00:13:49;100129.47;;;19.08;83.04
5522;BME280;2783;48.730;8.006;2023-07-31T00:16:15;100120.66;;;19.06;82.73
5522;BME280;2783;48.730;8.006;2023-07-31T00:18:40;100121.59;;;19.05;82.03
5522;BME280;2783;48.730;8.006;2023-07-31T00:21:05;100111.38;;;19.10;82.29
5522;BME280;2783;48.730;8.006;2023-07-31T00:23:31;100118.53;;;19.11;82.74
5522;BME280;2783;48.730;8.006;2023-07-31T00:25:56;100110.34;;;19.12;82.73
5522;BME280;2783;48.730;8.006;2023-07-31T00:28:22;100110.34;;;19.12;83.14
5522;BME280;2783;48.730;8.006;2023-07-31T00:30:47;100113.75;;;19.14;82.72
5522;BME280;2783;48.730;8.006;2023-07-31T00:33:12;100122.72;;;19.15;82.35
5522;BME280;2783;48.730;8.006;2023-07-31T00:35:38;100118.59;;;19.09;82.51
5522;BME280;2783;48.730;8.006;2023-07-31T00:38:03;100108.13;;;19.05;81.00
5522;BME280;2783;48.730;8.006;2023-07-31T00:40:29;100113.50;;;19.05;81.58
5522;BME280;2783;48.730;8.006;2023-07-31T00:42:54;100102.63;;;19.06;81.69
5522;BME280;2783;48.730;8.006;2023-07-31T00:45:19;100110.44;;;19.11;82.05
5522;BME280;2783;48.730;8.006;2023-07-31T00:47:48;100102.53;;;19.08;81.60
5522;BME280;2783;48.730;8.006;2023-07-31T00:50:14;100101.00;;;19.04;81.30
5522;BME280;2783;48.730;8.006;2023-07-31T00:52:39;100100.13;;;19.03;82.40
5522;BME280;2783;48.730;8.006;2023-07-31T00:55:05;100102.28;;;18.98;82.45
5522;BME280;2783;48.730;8.006;2023-07-31T00:57:32;100104.09;;;18.98;82.69
5522;BME280;2783;48.730;8.006;2023-07-31T00:59:58;100094.38;;;18.95;81.75
5522;BME280;2783;48.730;8.006;2023-07-31T01:02:23;100092.78;;;18.93;82.53
5522;BME280;2783;48.730;8.006;2023-07-31T01:04:49;100084.13;;;18.88;82.48
5522;BME280;2783;48.730;8.006;2023-07-31T01:07:27;100095.06;;;18.85;82.75
5522;BME280;2783;48.730;8.006;2023-07-31T01:10:07;100085.56;;;18.79;83.28
5522;BME280;2783;48.730;8.006;2023-07-31T01:12:34;100077.75;;;18.75;82.96
5522;BME280;2783;48.730;8.006;2023-07-31T01:15:05;100087.03;;;18.71;81.55
5522;BME280;2783;48.730;8.006;2023-07-31T01:17:30;100092.22;;;18.74;81.81
5522;BME280;2783;48.730;8.006;2023-07-31T01:19:59;100082.22;;;18.76;82.56
5522;BME280;2783;48.730;8.006;2023-07-31T01:25:31;100090.50;;;18.73;82.95
5522;BME280;2783;48.730;8.006;2023-07-31T01:28:06;100088.94;;;18.69;83.13
5522;BME280;2783;48.730;8.006;2023-07-31T01:30:35;100091.94;;;18.64;83.38
5522;BME280;2783;48.730;8.006;2023-07-31T01:33:03;100083.28;;;18.59;83.83
5522;BME280;2783;48.730;8.006;2023-07-31T01:35:37;100087.59;;;18.62;84.20
5522;BME280;2783;48.730;8.006;2023-07-31T01:38:03;100080.69;;;18.58;84.02
5522;BME280;2783;48.730;8.006;2023-07-31T01:40:28;100081.94;;;18.52;84.40
5522;BME280;2783;48.730;8.006;2023-07-31T01:42:54;100075.88;;;18.49;84.65
5522;BME280;2783;48.730;8.006;2023-07-31T01:45:19;100076.88;;;18.48;84.93
5522;BME280;2783;48.730;8.006;2023-07-31T01:47:45;100066.09;;;18.48;84.98
5522;BME280;2783;48.730;8.006;2023-07-31T01:50:10;100074.16;;;18.48;84.50
5522;BME280;2783;48.730;8.006;2023-07-31T01:52:36;100074.16;;;18.48;83.74
5522;BME280;2783;48.730;8.006;2023-07-31T01:55:01;100072.25;;;18.50;83.21
5522;BME280;2783;48.730;8.006;2023-07-31T01:57:27;100066.09;;;18.48;82.22
5522;BME280;2783;48.730;8.006;2023-07-31T01:59:52;100064.69;;;17.84;85.36
5522;BME280;2783;48.730;8.006;2023-07-31T02:02:21;100053.25;;;17.67;87.05
5522;BME280;2783;48.730;8.006;2023-07-31T02:04:48;100060.72;;;17.62;87.64
5522;BME280;2783;48.730;8.006;2023-07-31T02:07:13;100051.03;;;17.59;87.17
5522;BME280;2783;48.730;8.006;2023-07-31T02:09:39;100046.50;;;17.60;87.74
5522;BME280;2783;48.730;8.006;2023-07-31T02:12:04;100051.84;;;18.03;85.88
5522;BME280;2783;48.730;8.006;2023-07-31T02:14:30;100054.44;;;18.33;82.97
5522;BME280;2783;48.730;8.006;2023-07-31T02:16:55;100047.22;;;18.48;82.48
5522;BME280;2783;48.730;8.006;2023-07-31T02:19:21;100043.41;;;18.52;81.87
5522;BME280;2783;48.730;8.006;2023-07-31T02:21:46;100042.41;;;18.53;81.43
5522;BME280;2783;48.730;8.006;2023-07-31T02:24:12;100037.44;;;18.47;81.46
5522;BME280;2783;48.730;8.006;2023-07-31T02:26:37;100022.78;;;18.51;81.88
5522;BME280;2783;48.730;8.006;2023-07-31T02:29:02;100025.59;;;18.49;81.61
5522;BME280;2783;48.730;8.006;2023-07-31T02:31:28;100034.34;;;18.53;81.68
5522;BME280;2783;48.730;8.006;2023-07-31T02:33:54;100033.56;;;18.51;81.75
5522;BME280;2783;48.730;8.006;2023-07-31T02:36:19;100025.69;;;18.48;81.51
5522;BME280;2783;48.730;8.006;2023-07-31T02:38:44;100020.09;;;18.51;81.47
5522;BME280;2783;48.730;8.006;2023-07-31T02:41:10;100032.63;;;18.52;81.64
5522;BME280;2783;48.730;8.006;2023-07-31T02:43:35;100028.28;;;18.49;81.89
5522;BME280;2783;48.730;8.006;2023-07-31T02:46:01;100020.97;;;18.51;81.66
5522;BME280;2783;48.730;8.006;2023-07-31T02:48:26;100024.53;;;18.52;81.43
5522;BME280;2783;48.730;8.006;2023-07-31T02:50:51;100021.06;;;18.50;81.76
5522;BME280;2783;48.730;8.006;2023-07-31T02:53:17;100027.41;;;18.49;81.91
5522;BME280;2783;48.730;8.006;2023-07-31T02:55:42;100032.13;;;18.45;81.67
5522;BME280;2783;48.730;8.006;2023-07-31T02:58:08;100030.50;;;18.43;81.26
5522;BME280;2783;48.730;8.006;2023-07-31T03:00:33;100025.88;;;18.45;81.91
5522;BME280;2783;48.730;8.006;2023-07-31T03:02:58;100039.94;;;18.50;81.55
5522;BME280;2783;48.730;8.006;2023-07-31T03:05:24;100037.81;;;18.55;81.70
5522;BME280;2783;48.730;8.006;2023-07-31T03:07:49;100023.25;;;18.57;82.37
5522;BME280;2783;48.730;8.006;2023-07-31T03:10:15;100026.81;;;18.58;81.33
5522;BME280;2783;48.730;8.006;2023-07-31T03:12:40;100019.88;;;18.54;81.78
5522;BME280;2783;48.730;8.006;2023-07-31T03:15:06;100023.34;;;18.56;82.41
5522;BME280;2783;48.730;8.006;2023-07-31T03:17:32;100023.34;;;18.56;82.74
5522;BME280;2783;48.730;8.006;2023-07-31T03:19:57;100018.16;;;18.53;82.24
5522;BME280;2783;48.730;8.006;2023-07-31T03:22:23;100022.78;;;18.51;82.00
5522;BME280;2783;48.730;8.006;2023-07-31T03:24:48;100023.66;;;18.51;81.82
5522;BME280;2783;48.730;8.006;2023-07-31T03:27:13;100020.50;;;18.45;81.81
5522;BME280;2783;48.730;8.006;2023-07-31T03:29:39;100029.16;;;18.50;81.81
5522;BME280;2783;48.730;8.006;2023-07-31T03:32:05;100022.22;;;18.46;82.54
5522;BME280;2783;48.730;8.006;2023-07-31T03:34:30;100033.09;;;18.44;82.69
5522;BME280;2783;48.730;8.006;2023-07-31T03:36:57;100031.47;;;18.42;82.27
5522;BME280;2783;48.730;8.006;2023-07-31T03:39:23;100029.72;;;18.41;82.19
5522;BME280;2783;48.730;8.006;2023-07-31T03:41:48;100031.16;;;18.46;82.13
5522;BME280;2783;48.730;8.006;2023-07-31T03:44:14;100027.81;;;18.43;82.63
5522;BME280;2783;48.730;8.006;2023-07-31T03:46:39;100034.91;;;18.44;82.92
5522;BME280;2783;48.730;8.006;2023-07-31T03:49:04;100034.06;;;18.43;82.89
5522;BME280;2783;48.730;8.006;2023-07-31T03:51:30;100031.47;;;18.42;83.27
5522;BME280;2783;48.730;8.006;2023-07-31T03:53:55;100033.41;;;18.40;82.89
5522;BME280;2783;48.730;8.006;2023-07-31T03:56:21;100026.19;;;18.40;83.22
5522;BME280;2783;48.730;8.006;2023-07-31T03:58:46;100038.78;;;18.40;83.17
5522;BME280;2783;48.730;8.006;2023-07-31T04:01:11;100038.78;;;18.40;83.14
5522;BME280;2783;48.730;8.006;2023-07-31T04:03:37;100047.03;;;18.36;83.25
5522;BME280;2783;48.730;8.006;2023-07-31T04:06:02;100038.06;;;18.36;82.59
5522;BME280;2783;48.730;8.006;2023-07-31T04:08:28;100033.28;;;18.41;82.60
5522;BME280;2783;48.730;8.006;2023-07-31T04:10:53;100031.72;;;18.37;83.10
5522;BME280;2783;48.730;8.006;2023-07-31T04:13:19;100029.44;;;18.31;82.32
5522;BME280;2783;48.730;8.006;2023-07-31T04:15:49;100028.19;;;18.36;82.13
5522;BME280;2783;48.730;8.006;2023-07-31T04:18:15;100018.75;;;18.44;82.95
5522;BME280;2783;48.730;8.006;2023-07-31T04:30:45;100015.38;;;18.54;82.21
5522;BME280;2783;48.730;8.006;2023-07-31T04:33:11;100019.78;;;18.55;82.13
5522;BME280;2783;48.730;8.006;2023-07-31T04:35:36;100016.59;;;18.63;81.87
5522;BME280;2783;48.730;8.006;2023-07-31T04:38:02;100015.63;;;18.64;81.27
5522;BME280;2783;48.730;8.006;2023-07-31T04:40:27;100017.94;;;18.70;81.67
5522;BME280;2783;48.730;8.006;2023-07-31T04:42:53;100021.00;;;18.78;81.41
5522;BME280;2783;48.730;8.006;2023-07-31T04:45:18;100017.63;;;18.74;81.46
5522;BME280;2783;48.730;8.006;2023-07-31T04:47:43;100019.16;;;18.78;80.88
5522;BME280;2783;48.730;8.006;2023-07-31T04:50:09;100008.81;;;18.85;80.66
5522;BME280;2783;48.730;8.006;2023-07-31T04:52:35;100015.75;;;18.89;81.05
5522;BME280;2783;48.730;8.006;2023-07-31T04:55:00;100015.53;;;18.92;80.67
5522;BME280;2783;48.730;8.006;2023-07-31T04:57:25;100021.50;;;18.97;80.75
5522;BME280;2783;48.730;8.006;2023-07-31T04:59:51;100023.78;;;19.03;80.79
5522;BME280;2783;48.730;8.006;2023-07-31T05:02:16;100019.69;;;19.10;80.32
5522;BME280;2783;48.730;8.006;2023-07-31T05:04:42;100021.25;;;19.14;80.29
5522;BME280;2783;48.730;8.006;2023-07-31T05:07:07;100027.09;;;19.20;80.25
5522;BME280;2783;48.730;8.006;2023-07-31T05:09:33;100018.78;;;19.23;80.10
5522;BME280;2783;48.730;8.006;2023-07-31T05:11:58;100017.31;;;19.32;79.70
5522;BME280;2783;48.730;8.006;2023-07-31T05:14:24;100020.03;;;19.32;78.99
5522;BME280;2783;48.730;8.006;2023-07-31T05:16:49;100011.16;;;19.30;78.82
5522;BME280;2783;48.730;8.006;2023-07-31T05:19:14;100014.31;;;19.36;78.77
5522;BME280;2783;48.730;8.006;2023-07-31T05:21:40;100017.88;;;19.37;78.58
5522;BME280;2783;48.730;8.006;2023-07-31T05:24:06;100008.81;;;19.38;77.92
5522;BME280;2783;48.730;8.006;2023-07-31T05:26:32;100008.19;;;19.47;77.52
5522;BME280;2783;48.730;8.006;2023-07-31T05:28:57;100008.31;;;19.58;77.07
5522;BME280;2783;48.730;8.006;2023-07-31T05:31:23;100012.09;;;19.68;76.61
5522;BME280;2783;48.730;8.006;2023-07-31T05:33:49;100000.44;;;19.80;75.94
5522;BME280;2783;48.730;8.006;2023-07-31T05:36:15;100006.34;;;19.85;76.08
5522;BME280;2783;48.730;8.006;2023-07-31T05:38:41;100008.09;;;19.86;75.55
5522;BME280;2783;48.730;8.006;2023-07-31T05:41:07;99996.00;;;19.92;74.77
5522;BME280;2783;48.730;8.006;2023-07-31T05:43:32;99990.81;;;20.01;74.39
5522;BME280;2783;48.730;8.006;2023-07-31T05:45:58;99995.78;;;19.95;73.83
5522;BME280;2783;48.730;8.006;2023-07-31T05:48:23;99995.88;;;20.06;73.62
5522;BME280;2783;48.730;8.006;2023-07-31T05:50:49;99996.28;;;20.12;73.15
5522;BME280;2783;48.730;8.006;2023-07-31T05:53:14;99985.19;;;20.17;72.99
5522;BME280;2783;48.730;8.006;2023-07-31T05:55:39;99980.09;;;20.25;72.35
5522;BME280;2783;48.730;8.006;2023-07-31T05:58:05;99969.69;;;20.31;72.30
5522;BME280;2783;48.730;8.006;2023-07-31T06:00:30;99977.81;;;20.31;71.40
5522;BME280;2783;48.730;8.006;2023-07-31T06:02:56;99974.81;;;20.23;71.99
5522;BME280;2783;48.730;8.006;2023-07-31T06:05:21;99975.09;;;20.31;72.41
5522;BME280;2783;48.730;8.006;2023-07-31T06:07:47;99964.75;;;20.25;72.59
5522;BME280;2783;48.730;8.006;2023-07-31T06:10:12;99970.69;;;20.30;72.33
5522;BME280;2783;48.730;8.006;2023-07-31T06:12:38;99976.97;;;20.31;72.79
5522;BME280;2783;48.730;8.006;2023-07-31T06:15:04;99969.09;;;20.28;71.79
5522;BME280;2783;48.730;8.006;2023-07-31T06:17:30;99976.09;;;20.30;72.01
5522;BME280;2783;48.730;8.006;2023-07-31T06:19:56;99980.31;;;20.34;73.05
5522;BME280;2783;48.730;8.006;2023-07-31T06:22:22;99982.44;;;20.42;73.18
5522;BME280;2783;48.730;8.006;2023-07-31T06:24:47;99988.72;;;20.42;72.15
5522;BME280;2783;48.730;8.006;2023-07-31T06:27:12;99988.94;;;20.39;72.28
5522;BME280;2783;48.730;8.006;2023-07-31T06:29:38;99993.88;;;20.45;73.48
5522;BME280;2783;48.730;8.006;2023-07-31T06:32:03;99990.44;;;20.43;72.58
5522;BME280;2783;48.730;8.006;2023-07-31T06:34:29;99996.88;;;20.53;73.76
5522;BME280;2783;48.730;8.006;2023-07-31T06:36:56;100001.22;;;20.56;73.19
5522;BME280;2783;48.730;8.006;2023-07-31T06:39:21;99982.91;;;20.59;72.40
5522;BME280;2783;48.730;8.006;2023-07-31T06:41:46;99994.22;;;20.77;71.19
5522;BME280;2783;48.730;8.006;2023-07-31T06:44:12;99999.78;;;20.86;71.07
5522;BME280;2783;48.730;8.006;2023-07-31T06:46:37;99981.81;;;20.98;70.18
5522;BME280;2783;48.730;8.006;2023-07-31T06:49:03;99994.28;;;20.88;70.27
5522;BME280;2783;48.730;8.006;2023-07-31T06:51:28;99996.09;;;20.87;70.37
5522;BME280;2783;48.730;8.006;2023-07-31T06:53:56;99993.09;;;20.79;70.51
5522;BME280;2783;48.730;8.006;2023-07-31T06:56:22;99994.84;;;20.80;70.15
5522;BME280;2783;48.730;8.006;2023-07-31T06:58:47;99987.69;;;20.79;70.15
5522;BME280;2783;48.730;8.006;2023-07-31T07:01:13;99983.34;;;20.89;70.12
5522;BME280;2783;48.730;8.006;2023-07-31T07:03:38;99983.34;;;20.89;69.17
5522;BME280;2783;48.730;8.006;2023-07-31T07:06:04;99973.34;;;21.03;70.05
5522;BME280;2783;48.730;8.006;2023-07-31T07:08:29;99969.44;;;21.07;69.30
5522;BME280;2783;48.730;8.006;2023-07-31T07:10:55;99965.25;;;21.14;68.47
5522;BME280;2783;48.730;8.006;2023-07-31T07:13:21;99966.06;;;21.27;68.33
5522;BME280;2783;48.730;8.006;2023-07-31T07:15:50;99977.16;;;21.35;67.16
5522;BME280;2783;48.730;8.006;2023-07-31T07:18:16;99976.88;;;21.61;67.77
5522;BME280;2783;48.730;8.006;2023-07-31T07:20:52;99974.09;;;21.85;66.79
5522;BME280;2783;48.730;8.006;2023-07-31T07:23:19;99966.22;;;22.15;65.69
5522;BME280;2783;48.730;8.006;2023-07-31T07:25:45;99969.78;;;22.27;63.95
5522;BME280;2783;48.730;8.006;2023-07-31T07:28:11;99969.38;;;22.42;63.70
5522;BME280;2783;48.730;8.006;2023-07-31T07:30:36;99966.44;;;22.56;63.43
5522;BME280;2783;48.730;8.006;2023-07-31T07:33:02;99966.44;;;22.56;62.89
5522;BME280;2783;48.730;8.006;2023-07-31T07:35:28;99960.78;;;22.48;63.00
5522;BME280;2783;48.730;8.006;2023-07-31T07:37:53;99962.50;;;22.38;62.66
5522;BME280;2783;48.730;8.006;2023-07-31T07:40:19;99951.63;;;22.49;64.02
5522;BME280;2783;48.730;8.006;2023-07-31T07:42:45;99959.16;;;22.46;62.74
5522;BME280;2783;48.730;8.006;2023-07-31T07:45:10;99955.56;;;22.67;63.25
5522;BME280;2783;48.730;8.006;2023-07-31T07:47:35;99945.28;;;22.82;63.41
5522;BME280;2783;48.730;8.006;2023-07-31T07:50:01;99952.53;;;22.92;62.50
5522;BME280;2783;48.730;8.006;2023-07-31T07:52:26;99960.81;;;22.91;60.83
5522;BME280;2783;48.730;8.006;2023-07-31T07:54:52;99961.16;;;22.97;61.54
5522;BME280;2783;48.730;8.006;2023-07-31T07:57:17;99961.28;;;22.96;60.87
5522;BME280;2783;48.730;8.006;2023-07-31T07:59:43;99954.59;;;23.31;60.64
5522;BME280;2783;48.730;8.006;2023-07-31T08:02:09;99955.19;;;23.76;59.75
5522;BME280;2783;48.730;8.006;2023-07-31T08:04:34;99965.19;;;23.76;58.65
5522;BME280;2783;48.730;8.006;2023-07-31T08:06:59;99953.94;;;23.60;58.48
5522;BME280;2783;48.730;8.006;2023-07-31T08:09:25;99964.88;;;23.49;59.91
5522;BME280;2783;48.730;8.006;2023-07-31T08:11:50;99964.66;;;23.61;61.38
5522;BME280;2783;48.730;8.006;2023-07-31T08:14:16;99958.63;;;23.78;60.07
5522;BME280;2783;48.730;8.006;2023-07-31T08:16:42;99952.69;;;23.94;59.00
5522;BME280;2783;48.730;8.006;2023-07-31T08:19:07;99953.53;;;23.85;59.06
5522;BME280;2783;48.730;8.006;2023-07-31T08:21:32;99954.84;;;23.90;59.47
5522;BME280;2783;48.730;8.006;2023-07-31T08:23:58;99953.25;;;23.88;59.32
5522;BME280;2783;48.730;8.006;2023-07-31T08:26:23;99936.25;;;24.16;59.31
5522;BME280;2783;48.730;8.006;2023-07-31T08:28:49;99931.41;;;24.78;57.49
5522;BME280;2783;48.730;8.006;2023-07-31T08:31:14;99938.88;;;25.14;56.39
5522;BME280;2783;48.730;8.006;2023-07-31T08:33:39;99933.84;;;25.19;56.33
5522;BME280;2783;48.730;8.006;2023-07-31T08:36:06;99940.44;;;24.88;55.13
5522;BME280;2783;48.730;8.006;2023-07-31T08:38:31;99933.88;;;25.00;54.65
5522;BME280;2783;48.730;8.006;2023-07-31T08:40:57;99928.00;;;25.24;55.59
5522;BME280;2783;48.730;8.006;2023-07-31T08:43:25;99930.13;;;25.30;55.13
5522;BME280;2783;48.730;8.006;2023-07-31T08:45:51;99914.66;;;25.21;53.54
5522;BME280;2783;48.730;8.006;2023-07-31T08:48:17;99915.97;;;25.17;54.93
5522;BME280;2783;48.730;8.006;2023-07-31T08:50:43;99908.63;;;25.17;54.52
5522;BME280;2783;48.730;8.006;2023-07-31T08:53:08;99913.78;;;25.30;53.34
5522;BME280;2783;48.730;8.006;2023-07-31T08:55:35;99911.53;;;25.35;51.95
5522;BME280;2783;48.730;8.006;2023-07-31T08:58:03;99904.50;;;25.88;52.40
5522;BME280;2783;48.730;8.006;2023-07-31T09:00:29;99905.44;;;25.96;51.94
5522;BME280;2783;48.730;8.006;2023-07-31T09:02:59;99912.13;;;26.21;51.22
5522;BME280;2783;48.730;8.006;2023-07-31T09:05:29;99904.38;;;26.71;48.65
5522;BME280;2783;48.730;8.006;2023-07-31T09:07:55;99905.56;;;26.68;47.47
5522;BME280;2783;48.730;8.006;2023-07-31T09:10:21;99896.44;;;26.95;47.88
5522;BME280;2783;48.730;8.006;2023-07-31T09:12:47;99892.75;;;27.39;47.81
5522;BME280;2783;48.730;8.006;2023-07-31T09:15:13;99888.72;;;28.02;45.52
5522;BME280;2783;48.730;8.006;2023-07-31T09:17:39;99891.97;;;28.39;45.49
5522;BME280;2783;48.730;8.006;2023-07-31T09:22:39;99882.84;;;28.65;43.99
5522;BME280;2783;48.730;8.006;2023-07-31T09:25:17;99870.94;;;28.40;44.35
5522;BME280;2783;48.730;8.006;2023-07-31T09:27:54;99868.81;;;28.68;46.12
5522;BME280;2783;48.730;8.006;2023-07-31T09:30:21;99858.56;;;28.94;43.50
5522;BME280;2783;48.730;8.006;2023-07-31T09:32:48;99852.44;;;29.24;43.35
5522;BME280;2783;48.730;8.006;2023-07-31T09:35:19;99851.38;;;28.93;41.95
5522;BME280;2783;48.730;8.006;2023-07-31T09:37:52;99849.91;;;28.48;43.50
5522;BME280;2783;48.730;8.006;2023-07-31T09:40:33;99849.63;;;27.84;44.00
5522;BME280;2783;48.730;8.006;2023-07-31T09:43:03;99838.84;;;27.83;44.43
5522;BME280;2783;48.730;8.006;2023-07-31T09:45:29;99847.28;;;27.89;44.37
5522;BME280;2783;48.730;8.006;2023-07-31T09:47:56;99849.50;;;27.60;44.75
5522;BME280;2783;48.730;8.006;2023-07-31T09:50:24;99839.84;;;27.48;45.16
5522;BME280;2783;48.730;8.006;2023-07-31T09:52:50;99838.63;;;27.68;45.83
5522;BME280;2783;48.730;8.006;2023-07-31T09:55:17;99841.75;;;27.81;45.32
5522;BME280;2783;48.730;8.006;2023-07-31T09:57:46;99839.09;;;27.89;44.32
5522;BME280;2783;48.730;8.006;2023-07-31T10:00:13;99837.78;;;28.01;42.76
5522;BME280;2783;48.730;8.006;2023-07-31T10:02:39;99826.41;;;27.88;44.12
5522;BME280;2783;48.730;8.006;2023-07-31T10:05:14;99834.88;;;27.69;44.21
5522;BME280;2783;48.730;8.006;2023-07-31T10:07:51;99834.72;;;27.45;45.56
5522;BME280;2783;48.730;8.006;2023-07-31T10:10:20;99844.31;;;27.06;45.05
5522;BME280;2783;48.730;8.006;2023-07-31T10:12:48;99831.16;;;27.01;45.80
5522;BME280;2783;48.730;8.006;2023-07-31T10:15:14;99849.97;;;26.87;46.42
5522;BME280;2783;48.730;8.006;2023-07-31T10:17:40;99850.38;;;26.65;45.54
5522;BME280;2783;48.730;8.006;2023-07-31T10:20:06;99854.75;;;26.58;46.67
5522;BME280;2783;48.730;8.006;2023-07-31T10:22:33;99845.78;;;26.48;47.06
5522;BME280;2783;48.730;8.006;2023-07-31T10:24:59;99851.53;;;26.45;48.13
5522;BME280;2783;48.730;8.006;2023-07-31T10:27:26;99851.75;;;26.78;46.82
5522;BME280;2783;48.730;8.006;2023-07-31T10:29:54;99846.13;;;26.80;46.44
5522;BME280;2783;48.730;8.006;2023-07-31T10:32:20;99846.63;;;26.75;46.80
5522;BME280;2783;48.730;8.006;2023-07-31T10:34:47;99841.91;;;26.50;46.99
5522;BME280;2783;48.730;8.006;2023-07-31T10:37:41;99840.94;;;26.42;47.91
5522;BME280;2783;48.730;8.006;2023-07-31T10:40:18;99850.47;;;26.55;47.97
5522;BME280;2783;48.730;8.006;2023-07-31T10:42:48;99853.41;;;26.44;48.75
5522;BME280;2783;48.730;8.006;2023-07-31T10:45:24;99842.47;;;26.27;47.76
5522;BME280;2783;48.730;8.006;2023-07-31T10:47:59;99852.59;;;25.80;49.15
5522;BME280;2783;48.730;8.006;2023-07-31T10:50:26;99837.91;;;25.90;49.60
5522;BME280;2783;48.730;8.006;2023-07-31T10:52:54;99840.13;;;26.14;50.91
5522;BME280;2783;48.730;8.006;2023-07-31T10:55:26;99831.00;;;26.23;48.72
5522;BME280;2783;48.730;8.006;2023-07-31T10:57:55;99837.72;;;26.29;48.75
5522;BME280;2783;48.730;8.006;2023-07-31T11:00:27;99830.03;;;26.59;47.89
5522;BME280;2783;48.730;8.006;2023-07-31T11:03:01;99836.19;;;26.61;46.56
5522;BME280;2783;48.730;8.006;2023-07-31T11:08:15;99825.84;;;27.00;48.28
5522;BME280;2783;48.730;8.006;2023-07-31T11:10:42;99827.81;;;27.15;47.14
5522;BME280;2783;48.730;8.006;2023-07-31T11:13:08;99825.41;;;27.30;47.32
5522;BME280;2783;48.730;8.006;2023-07-31T11:15:33;99830.03;;;27.30;46.85
5522;BME280;2783;48.730;8.006;2023-07-31T11:18:02;99818.63;;;27.68;45.86
5522;BME280;2783;48.730;8.006;2023-07-31T11:20:32;99812.63;;;28.48;44.68
5522;BME280;2783;48.730;8.006;2023-07-31T11:23:02;99816.09;;;28.66;43.70
5522;BME280;2783;48.730;8.006;2023-07-31T11:25:29;99787.38;;;28.70;43.48
5522;BME280;2783;48.730;8.006;2023-07-31T11:27:55;99806.38;;;29.11;44.21
5522;BME280;2783;48.730;8.006;2023-07-31T11:30:21;99807.88;;;29.38;42.85
5522;BME280;2783;48.730;8.006;2023-07-31T11:32:47;99803.25;;;29.38;42.24
5522;BME280;2783;48.730;8.006;2023-07-31T11:35:12;99795.75;;;29.08;43.00
5522;BME280;2783;48.730;8.006;2023-07-31T11:37:39;99792.16;;;28.84;43.25
5522;BME280;2783;48.730;8.006;2023-07-31T11:40:06;99794.41;;;28.06;44.48
5522;BME280;2783;48.730;8.006;2023-07-31T11:42:31;99787.28;;;28.37;45.47
5522;BME280;2783;48.730;8.006;2023-07-31T11:44:56;99781.03;;;28.61;43.56
5522;BME280;2783;48.730;8.006;2023-07-31T11:47:22;99779.47;;;28.67;44.87
5522;BME280;2783;48.730;8.006;2023-07-31T11:49:48;99771.44;;;28.73;43.92
5522;BME280;2783;48.730;8.006;2023-07-31T11:52:15;99765.78;;;29.07;43.05
5522;BME280;2783;48.730;8.006;2023-07-31T11:54:41;99764.97;;;29.69;42.22
5522;BME280;2783;48.730;8.006;2023-07-31T11:57:07;99757.31;;;30.03;41.30
5522;BME280;2783;48.730;8.006;2023-07-31T11:59:33;99754.88;;;30.00;40.74
5522;BME280;2783;48.730;8.006;2023-07-31T12:01:59;99756.28;;;29.49;42.95
5522;BME280;2783;48.730;8.006;2023-07-31T12:04:24;99756.50;;;29.40;41.14
5522;BME280;2783;48.730;8.006;2023-07-31T12:06:52;99742.22;;;29.99;42.46
5522;BME280;2783;48.730;8.006;2023-07-31T12:09:18;99747.66;;;30.07;41.00
5522;BME280;2783;48.730;8.006;2023-07-31T12:11:47;99741.44;;;30.13;42.10
5522;BME280;2783;48.730;8.006;2023-07-31T12:16:45;99729.28;;;30.38;40.97
5522;BME280;2783;48.730;8.006;2023-07-31T12:19:10;99732.47;;;30.27;40.85
5522;BME280;2783;48.730;8.006;2023-07-31T12:21:37;99724.50;;;29.79;41.04
5522;BME280;2783;48.730;8.006;2023-07-31T12:24:03;99726.72;;;29.29;41.38
5522;BME280;2783;48.730;8.006;2023-07-31T12:26:34;99718.53;;;29.21;43.16
5522;BME280;2783;48.730;8.006;2023-07-31T12:28:59;99714.09;;;29.12;43.01
5522;BME280;2783;48.730;8.006;2023-07-31T12:31:27;99716.34;;;28.76;44.45
5522;BME280;2783;48.730;8.006;2023-07-31T12:33:53;99707.94;;;28.29;44.75
5522;BME280;2783;48.730;8.006;2023-07-31T12:36:22;99708.53;;;27.91;45.08
5522;BME280;2783;48.730;8.006;2023-07-31T12:38:50;99706.69;;;28.08;45.27
5522;BME280;2783;48.730;8.006;2023-07-31T12:41:16;99702.78;;;28.18;45.51
5522;BME280;2783;48.730;8.006;2023-07-31T12:43:43;99700.06;;;28.18;44.98
5522;BME280;2783;48.730;8.006;2023-07-31T12:46:09;99712.69;;;28.11;46.03
5522;BME280;2783;48.730;8.006;2023-07-31T12:48:35;99704.81;;;28.00;45.41
5522;BME280;2783;48.730;8.006;2023-07-31T12:51:01;99694.41;;;27.62;45.97
5522;BME280;2783;48.730;8.006;2023-07-31T12:53:27;99696.66;;;27.33;46.50
5522;BME280;2783;48.730;8.006;2023-07-31T12:55:52;99697.28;;;27.19;47.00
5522;BME280;2783;48.730;8.006;2023-07-31T12:58:18;99689.56;;;26.89;46.43
5522;BME280;2783;48.730;8.006;2023-07-31T13:00:43;99684.56;;;27.10;48.15
5522;BME280;2783;48.730;8.006;2023-07-31T13:03:09;99685.63;;;27.35;48.27
5522;BME280;2783;48.730;8.006;2023-07-31T13:05:34;99676.25;;;27.45;46.57
5522;BME280;2783;48.730;8.006;2023-07-31T13:08:00;99669.78;;;27.46;46.61
5522;BME280;2783;48.730;8.006;2023-07-31T13:10:27;99668.41;;;27.50;46.77
5522;BME280;2783;48.730;8.006;2023-07-31T13:12:54;99661.44;;;27.56;47.11
5522;BME280;2783;48.730;8.006;2023-07-31T13:15:19;99657.03;;;27.63;46.90
5522;BME280;2783;48.730;8.006;2023-07-31T13:17:45;99650.34;;;27.65;47.84
5522;BME280;2783;48.730;8.006;2023-07-31T13:20:11;99651.06;;;27.75;46.93
5522;BME280;2783;48.730;8.006;2023-07-31T13:22:36;99646.69;;;27.98;46.93
5522;BME280;2783;48.730;8.006;2023-07-31T13:25:02;99645.84;;;28.14;46.24
5522;BME280;2783;48.730;8.006;2023-07-31T13:27:28;99648.94;;;28.35;46.66
5522;BME280;2783;48.730;8.006;2023-07-31T13:29:54;99633.53;;;28.26;46.22
5522;BME280;2783;48.730;8.006;2023-07-31T13:32:20;99643.31;;;28.28;44.70
5522;BME280;2783;48.730;8.006;2023-07-31T13:34:47;99640.03;;;28.33;44.52